sensor_id;sensor_type;location;lat;lon;timestamp;pressure;altitude;pressure_sealevel;temperature;humidity
30935;BME280;51033;42.648;23.292;2023-04-26T00:00:16;92925.91;;;10.08;61.25
30935;BME280;51033;42.648;23.292;2023-04-26T00:02:42;92920.13;;;9.94;60.91
30935;BME280;51033;42.648;23.292;2023-04-26T00:05:07;92940.72;;;10.09;60.86
30935;BME280;51033;42.648;23.292;2023-04-26T00:07:33;92927.25;;;10.02;61.17
30935;BME280;51033;42.648;23.292;2023-04-26T00:10:00;92908.63;;;9.90;60.89
30935;BME280;51033;42.648;23.292;2023-04-26T00:12:25;92927.44;;;9.97;60.63
30935;BME280;51033;42.648;23.292;2023-04-26T00:14:51;92910.81;;;9.88;60.24
30935;BME280;51033;42.648;23.292;2023-04-26T00:17:17;92909.72;;;9.89;60.41
30935;BME280;51033;42.648;23.292;2023-04-26T00:19:42;92909.16;;;9.83;60.11
30935;BME280;51033;42.648;23.292;2023-04-26T00:22:07;92903.50;;;9.73;60.37
30935;BME280;51033;42.648;23.292;2023-04-26T00:24:33;92910.69;;;9.72;60.58
30935;BME280;51033;42.648;23.292;2023-04-26T00:26:59;92904.81;;;9.67;60.46
30935;BME280;51033;42.648;23.292;2023-04-26T00:29:26;92905.25;;;9.69;60.21
30935;BME280;51033;42.648;23.292;2023-04-26T00:31:51;92897.28;;;9.57;61.15
30935;BME280;51033;42.648;23.292;2023-04-26T00:34:17;92893.84;;;9.56;61.04
30935;BME280;51033;42.648;23.292;2023-04-26T00:36:42;92889.50;;;9.52;61.08
30935;BME280;51033;42.648;23.292;2023-04-26T00:39:08;92896.38;;;9.53;60.99
30935;BME280;51033;42.648;23.292;2023-04-26T00:41:34;92850.16;;;9.21;61.03
30935;BME280;51033;42.648;23.292;2023-04-26T00:44:00;92898.00;;;9.45;61.33
30935;BME280;51033;42.648;23.292;2023-04-26T00:46:26;92894.25;;;9.46;61.56
30935;BME280;51033;42.648;23.292;2023-04-26T00:48:55;92902.66;;;9.48;61.29
30935;BME280;51033;42.648;23.292;2023-04-26T00:51:21;92887.38;;;9.45;60.51
30935;BME280;51033;42.648;23.292;2023-04-26T00:53:46;92875.66;;;9.34;60.58
30935;BME280;51033;42.648;23.292;2023-04-26T00:56:15;92892.16;;;9.52;60.10
30935;BME280;51033;42.648;23.292;2023-04-26T00:58:40;92876.41;;;9.34;60.00
30935;BME280;51033;42.648;23.292;2023-04-26T01:01:06;92895.44;;;9.36;60.25
30935;BME280;51033;42.648;23.292;2023-04-26T01:03:32;92894.28;;;9.25;60.97
30935;BME280;51033;42.648;23.292;2023-04-26T01:05:58;92890.66;;;9.30;60.75
30935;BME280;51033;42.648;23.292;2023-04-26T01:08:23;92888.28;;;9.16;61.05
30935;BME280;51033;42.648;23.292;2023-04-26T01:10:49;92891.13;;;9.11;61.58
30935;BME280;51033;42.648;23.292;2023-04-26T01:13:15;92898.56;;;9.18;61.52
30935;BME280;51033;42.648;23.292;2023-04-26T01:15:44;92893.31;;;9.09;61.54
30935;BME280;51033;42.648;23.292;2023-04-26T01:18:10;92874.03;;;9.00;61.18
30935;BME280;51033;42.648;23.292;2023-04-26T01:20:35;92877.59;;;9.04;61.54
30935;BME280;51033;42.648;23.292;2023-04-26T01:23:01;92878.16;;;9.10;60.56
30935;BME280;51033;42.648;23.292;2023-04-26T01:25:27;92876.69;;;9.00;60.30
30935;BME280;51033;42.648;23.292;2023-04-26T01:27:52;92886.00;;;9.06;60.55
30935;BME280;51033;42.648;23.292;2023-04-26T01:30:18;92879.34;;;9.00;60.78
30935;BME280;51033;42.648;23.292;2023-04-26T01:32:43;92885.00;;;8.98;60.87
30935;BME280;51033;42.648;23.292;2023-04-26T01:35:09;92904.56;;;9.06;61.14
30935;BME280;51033;42.648;23.292;2023-04-26T01:37:35;92873.22;;;8.87;61.19
30935;BME280;51033;42.648;23.292;2023-04-26T01:40:01;92872.44;;;8.87;61.37
30935;BME280;51033;42.648;23.292;2023-04-26T01:42:26;92907.41;;;9.01;61.66
30935;BME280;51033;42.648;23.292;2023-04-26T01:44:52;92891.78;;;8.87;61.82
30935;BME280;51033;42.648;23.292;2023-04-26T01:47:17;92903.94;;;8.88;62.40
30935;BME280;51033;42.648;23.292;2023-04-26T01:49:43;92893.41;;;8.80;62.62
30935;BME280;51033;42.648;23.292;2023-04-26T01:52:11;92891.84;;;8.79;63.06
30935;BME280;51033;42.648;23.292;2023-04-26T01:54:39;92894.53;;;8.91;62.95
30935;BME280;51033;42.648;23.292;2023-04-26T01:57:04;92855.00;;;8.65;62.95
30935;BME280;51033;42.648;23.292;2023-04-26T01:59:29;92878.72;;;8.82;62.67
30935;BME280;51033;42.648;23.292;2023-04-26T02:01:55;92892.25;;;8.89;63.09
30935;BME280;51033;42.648;23.292;2023-04-26T02:04:20;92889.13;;;8.87;63.08
30935;BME280;51033;42.648;23.292;2023-04-26T02:06:45;92881.63;;;8.89;62.97
30935;BME280;51033;42.648;23.292;2023-04-26T02:09:11;92877.09;;;8.90;63.25
30935;BME280;51033;42.648;23.292;2023-04-26T02:11:36;92863.13;;;8.81;62.95
30935;BME280;51033;42.648;23.292;2023-04-26T02:14:01;92862.03;;;8.82;62.73
30935;BME280;51033;42.648;23.292;2023-04-26T02:16:27;92854.28;;;8.77;62.88
30935;BME280;51033;42.648;23.292;2023-04-26T02:18:52;92866.34;;;8.86;63.36
30935;BME280;51033;42.648;23.292;2023-04-26T02:21:20;92868.03;;;8.91;62.91
30935;BME280;51033;42.648;23.292;2023-04-26T02:23:45;92873.78;;;8.93;63.25
30935;BME280;51033;42.648;23.292;2023-04-26T02:26:11;92871.81;;;8.90;63.10
30935;BME280;51033;42.648;23.292;2023-04-26T02:28:37;92878.00;;;8.94;63.03
30935;BME280;51033;42.648;23.292;2023-04-26T02:31:02;92847.22;;;8.81;63.06
30935;BME280;51033;42.648;23.292;2023-04-26T02:33:28;92873.47;;;8.94;63.08
30935;BME280;51033;42.648;23.292;2023-04-26T02:35:53;92865.06;;;8.92;63.69
30935;BME280;51033;42.648;23.292;2023-04-26T02:38:18;92853.97;;;8.78;63.76
30935;BME280;51033;42.648;23.292;2023-04-26T02:40:44;92874.91;;;8.92;64.18
30935;BME280;51033;42.648;23.292;2023-04-26T02:43:10;92868.81;;;8.91;64.47
30935;BME280;51033;42.648;23.292;2023-04-26T02:45:42;92853.44;;;8.85;64.20
30935;BME280;51033;42.648;23.292;2023-04-26T02:48:07;92871.53;;;9.03;64.31
30935;BME280;51033;42.648;23.292;2023-04-26T02:50:33;92855.63;;;9.03;64.22
30935;BME280;51033;42.648;23.292;2023-04-26T02:52:59;92862.25;;;9.10;64.14
30935;BME280;51033;42.648;23.292;2023-04-26T02:55:24;92855.28;;;9.05;64.84
30935;BME280;51033;42.648;23.292;2023-04-26T02:57:50;92838.66;;;8.96;65.12
30935;BME280;51033;42.648;23.292;2023-04-26T03:00:15;92858.69;;;9.06;65.23
30935;BME280;51033;42.648;23.292;2023-04-26T03:02:41;92871.16;;;9.14;65.57
30935;BME280;51033;42.648;23.292;2023-04-26T03:05:07;92857.72;;;9.10;65.18
30935;BME280;51033;42.648;23.292;2023-04-26T03:07:33;92860.88;;;9.12;65.54
30935;BME280;51033;42.648;23.292;2023-04-26T03:09:59;92861.88;;;9.20;65.58
30935;BME280;51033;42.648;23.292;2023-04-26T03:12:24;92859.69;;;9.22;65.78
30935;BME280;51033;42.648;23.292;2023-04-26T03:14:50;92847.41;;;9.17;65.70
30935;BME280;51033;42.648;23.292;2023-04-26T03:17:15;92829.50;;;9.14;65.69
30935;BME280;51033;42.648;23.292;2023-04-26T03:19:41;92857.19;;;9.37;65.66
30935;BME280;51033;42.648;23.292;2023-04-26T03:22:06;92842.78;;;9.26;65.13
30935;BME280;51033;42.648;23.292;2023-04-26T03:24:32;92849.13;;;9.34;65.38
30935;BME280;51033;42.648;23.292;2023-04-26T03:26:57;92843.44;;;9.23;65.51
30935;BME280;51033;42.648;23.292;2023-04-26T03:29:22;92844.97;;;9.24;65.79
30935;BME280;51033;42.648;23.292;2023-04-26T03:31:48;92849.97;;;9.26;65.81
30935;BME280;51033;42.648;23.292;2023-04-26T03:34:13;92847.78;;;9.28;65.91
30935;BME280;51033;42.648;23.292;2023-04-26T03:36:38;92815.63;;;9.09;65.43
30935;BME280;51033;42.648;23.292;2023-04-26T03:39:04;92825.72;;;9.15;65.50
30935;BME280;51033;42.648;23.292;2023-04-26T03:41:30;92846.78;;;9.32;65.48
30935;BME280;51033;42.648;23.292;2023-04-26T03:43:57;92848.97;;;9.30;65.31
30935;BME280;51033;42.648;23.292;2023-04-26T03:46:22;92856.63;;;9.32;64.93
30935;BME280;51033;42.648;23.292;2023-04-26T03:48:48;92873.22;;;9.41;64.98
30935;BME280;51033;42.648;23.292;2023-04-26T03:51:13;92861.59;;;9.33;65.12
30935;BME280;51033;42.648;23.292;2023-04-26T03:53:39;92872.75;;;9.27;66.04
30935;BME280;51033;42.648;23.292;2023-04-26T03:56:05;92860.47;;;9.22;66.48
30935;BME280;51033;42.648;23.292;2023-04-26T03:58:31;92878.00;;;9.48;65.60
30935;BME280;51033;42.648;23.292;2023-04-26T04:00:57;92852.19;;;9.36;65.17
30935;BME280;51033;42.648;23.292;2023-04-26T04:03:23;92892.84;;;9.61;65.43
30935;BME280;51033;42.648;23.292;2023-04-26T04:05:48;92864.06;;;9.51;65.19
30935;BME280;51033;42.648;23.292;2023-04-26T04:08:14;92869.75;;;9.61;64.68
30935;BME280;51033;42.648;23.292;2023-04-26T04:10:40;92875.47;;;9.51;64.93
30935;BME280;51033;42.648;23.292;2023-04-26T04:13:07;92895.97;;;9.63;65.26
30935;BME280;51033;42.648;23.292;2023-04-26T04:15:32;92873.91;;;9.50;65.94
30935;BME280;51033;42.648;23.292;2023-04-26T04:18:01;92874.03;;;9.54;65.81
30935;BME280;51033;42.648;23.292;2023-04-26T04:20:26;92892.63;;;9.66;66.25
30935;BME280;51033;42.648;23.292;2023-04-26T04:22:52;92886.56;;;9.65;66.75
30935;BME280;51033;42.648;23.292;2023-04-26T04:25:17;92878.69;;;9.57;66.28
30935;BME280;51033;42.648;23.292;2023-04-26T04:27:45;92901.81;;;9.68;66.63
30935;BME280;51033;42.648;23.292;2023-04-26T04:30:11;92906.38;;;9.80;66.44
30935;BME280;51033;42.648;23.292;2023-04-26T04:32:36;92890.03;;;9.78;66.50
30935;BME280;51033;42.648;23.292;2023-04-26T04:35:04;92909.50;;;9.94;66.32
30935;BME280;51033;42.648;23.292;2023-04-26T04:37:29;92906.84;;;9.82;66.34
30935;BME280;51033;42.648;23.292;2023-04-26T04:39:58;92916.78;;;9.85;66.60
30935;BME280;51033;42.648;23.292;2023-04-26T04:42:23;92905.28;;;9.81;66.88
30935;BME280;51033;42.648;23.292;2023-04-26T04:44:51;92908.81;;;9.73;67.40
30935;BME280;51033;42.648;23.292;2023-04-26T04:47:16;92898.41;;;9.80;66.41
30935;BME280;51033;42.648;23.292;2023-04-26T04:49:41;92884.00;;;9.69;66.10
30935;BME280;51033;42.648;23.292;2023-04-26T04:52:07;92901.75;;;9.89;66.21
30935;BME280;51033;42.648;23.292;2023-04-26T04:54:32;92903.97;;;9.87;66.40
30935;BME280;51033;42.648;23.292;2023-04-26T04:56:58;92887.38;;;9.90;65.95
30935;BME280;51033;42.648;23.292;2023-04-26T04:59:24;92907.75;;;10.10;65.24
30935;BME280;51033;42.648;23.292;2023-04-26T05:01:50;92917.59;;;10.10;65.74
30935;BME280;51033;42.648;23.292;2023-04-26T05:04:15;92914.72;;;10.15;65.81
30935;BME280;51033;42.648;23.292;2023-04-26T05:06:41;92904.63;;;10.08;65.64
30935;BME280;51033;42.648;23.292;2023-04-26T05:09:07;92872.56;;;10.01;64.08
30935;BME280;51033;42.648;23.292;2023-04-26T05:11:33;92906.44;;;10.16;64.09
30935;BME280;51033;42.648;23.292;2023-04-26T05:13:58;92894.00;;;10.08;64.99
30935;BME280;51033;42.648;23.292;2023-04-26T05:16:24;92910.28;;;10.19;63.75
30935;BME280;51033;42.648;23.292;2023-04-26T05:18:50;92910.63;;;10.17;65.18
30935;BME280;51033;42.648;23.292;2023-04-26T05:21:15;92920.28;;;10.34;64.05
30935;BME280;51033;42.648;23.292;2023-04-26T05:23:41;92913.56;;;10.37;63.75
30935;BME280;51033;42.648;23.292;2023-04-26T05:26:06;92925.03;;;10.28;65.57
30935;BME280;51033;42.648;23.292;2023-04-26T05:28:32;92903.56;;;10.21;63.85
30935;BME280;51033;42.648;23.292;2023-04-26T05:30:59;92926.75;;;9.88;65.38
30935;BME280;51033;42.648;23.292;2023-04-26T05:33:26;92901.19;;;9.83;66.25
30935;BME280;51033;42.648;23.292;2023-04-26T05:35:52;92912.63;;;10.20;63.50
30935;BME280;51033;42.648;23.292;2023-04-26T05:38:19;92892.72;;;10.02;65.05
30935;BME280;51033;42.648;23.292;2023-04-26T05:40:44;92907.31;;;9.96;65.81
30935;BME280;51033;42.648;23.292;2023-04-26T05:43:10;92903.97;;;9.87;65.41
30935;BME280;51033;42.648;23.292;2023-04-26T05:45:38;92913.75;;;10.07;64.96
30935;BME280;51033;42.648;23.292;2023-04-26T05:48:04;92902.78;;;9.97;64.83
30935;BME280;51033;42.648;23.292;2023-04-26T05:50:30;92936.53;;;10.32;63.03
30935;BME280;51033;42.648;23.292;2023-04-26T05:52:56;92932.81;;;10.46;63.82
30935;BME280;51033;42.648;23.292;2023-04-26T05:55:21;92921.47;;;10.12;65.68
30935;BME280;51033;42.648;23.292;2023-04-26T05:57:47;92927.06;;;10.44;65.83
30935;BME280;51033;42.648;23.292;2023-04-26T06:00:13;92940.31;;;10.31;64.99
30935;BME280;51033;42.648;23.292;2023-04-26T06:02:39;92914.59;;;9.87;66.82
30935;BME280;51033;42.648;23.292;2023-04-26T06:05:05;92922.94;;;10.22;65.01
30935;BME280;51033;42.648;23.292;2023-04-26T06:07:31;92903.44;;;10.30;65.31
30935;BME280;51033;42.648;23.292;2023-04-26T06:09:59;92942.31;;;10.83;63.71
30935;BME280;51033;42.648;23.292;2023-04-26T06:12:25;92927.81;;;10.68;57.34
30935;BME280;51033;42.648;23.292;2023-04-26T06:14:51;92944.53;;;10.69;57.45
30935;BME280;51033;42.648;23.292;2023-04-26T06:17:16;92941.56;;;10.70;55.70
30935;BME280;51033;42.648;23.292;2023-04-26T06:19:41;92920.19;;;10.43;55.65
30935;BME280;51033;42.648;23.292;2023-04-26T06:22:07;92933.91;;;10.57;56.35
30935;BME280;51033;42.648;23.292;2023-04-26T06:24:32;92932.78;;;10.33;56.16
30935;BME280;51033;42.648;23.292;2023-04-26T06:26:58;92930.22;;;10.13;56.48
30935;BME280;51033;42.648;23.292;2023-04-26T06:29:23;92946.06;;;10.33;57.03
30935;BME280;51033;42.648;23.292;2023-04-26T06:31:48;92950.59;;;10.33;58.47
30935;BME280;51033;42.648;23.292;2023-04-26T06:34:14;92949.25;;;10.15;55.95
30935;BME280;51033;42.648;23.292;2023-04-26T06:36:39;92925.44;;;9.94;56.28
30935;BME280;51033;42.648;23.292;2023-04-26T06:39:05;92924.31;;;9.83;55.98
30935;BME280;51033;42.648;23.292;2023-04-26T06:41:30;92923.41;;;9.79;57.05
30935;BME280;51033;42.648;23.292;2023-04-26T06:43:55;92956.31;;;9.99;57.56
30935;BME280;51033;42.648;23.292;2023-04-26T06:46:21;92953.97;;;9.85;57.06
30935;BME280;51033;42.648;23.292;2023-04-26T06:48:46;92944.44;;;9.72;56.54
30935;BME280;51033;42.648;23.292;2023-04-26T06:51:12;92953.75;;;9.78;57.27
30935;BME280;51033;42.648;23.292;2023-04-26T06:53:38;92960.06;;;9.53;54.99
30935;BME280;51033;42.648;23.292;2023-04-26T06:56:04;92960.66;;;9.58;55.45
30935;BME280;51033;42.648;23.292;2023-04-26T06:58:29;92958.25;;;9.44;55.81
30935;BME280;51033;42.648;23.292;2023-04-26T07:00:55;92954.06;;;9.43;56.26
30935;BME280;51033;42.648;23.292;2023-04-26T07:03:20;92968.81;;;9.53;56.61
30935;BME280;51033;42.648;23.292;2023-04-26T07:05:46;92947.72;;;9.36;57.01
30935;BME280;51033;42.648;23.292;2023-04-26T07:08:11;92958.94;;;9.54;57.84
30935;BME280;51033;42.648;23.292;2023-04-26T07:10:38;92961.00;;;9.69;54.81
30935;BME280;51033;42.648;23.292;2023-04-26T07:13:04;92959.13;;;9.69;55.10
30935;BME280;51033;42.648;23.292;2023-04-26T07:15:29;92953.50;;;9.71;53.72
30935;BME280;51033;42.648;23.292;2023-04-26T07:17:56;92928.84;;;9.37;55.63
30935;BME280;51033;42.648;23.292;2023-04-26T07:20:22;92940.44;;;9.66;56.47
30935;BME280;51033;42.648;23.292;2023-04-26T07:22:49;92947.50;;;9.74;52.01
30935;BME280;51033;42.648;23.292;2023-04-26T07:25:15;92931.78;;;9.69;51.12
30935;BME280;51033;42.648;23.292;2023-04-26T07:27:41;92943.25;;;9.81;49.08
30935;BME280;51033;42.648;23.292;2023-04-26T07:30:07;92919.84;;;9.63;49.98
30935;BME280;51033;42.648;23.292;2023-04-26T07:32:33;92947.25;;;9.87;49.03
30935;BME280;51033;42.648;23.292;2023-04-26T07:34:58;92943.53;;;9.68;49.53
30935;BME280;51033;42.648;23.292;2023-04-26T07:37:24;92930.22;;;9.56;50.07
30935;BME280;51033;42.648;23.292;2023-04-26T07:39:49;92943.47;;;9.43;50.72
30935;BME280;51033;42.648;23.292;2023-04-26T07:42:15;92952.44;;;9.51;50.87
30935;BME280;51033;42.648;23.292;2023-04-26T07:44:40;92971.38;;;9.62;51.14
30935;BME280;51033;42.648;23.292;2023-04-26T07:47:12;92959.69;;;9.42;50.66
30935;BME280;51033;42.648;23.292;2023-04-26T07:49:38;92981.25;;;9.20;50.93
30935;BME280;51033;42.648;23.292;2023-04-26T07:52:03;92964.97;;;9.00;52.40
30935;BME280;51033;42.648;23.292;2023-04-26T07:54:29;92975.56;;;9.09;52.30
30935;BME280;51033;42.648;23.292;2023-04-26T07:56:55;92969.63;;;9.12;52.08
30935;BME280;51033;42.648;23.292;2023-04-26T07:59:21;92977.63;;;9.24;52.67
30935;BME280;51033;42.648;23.292;2023-04-26T08:01:47;92985.38;;;9.29;52.13
30935;BME280;51033;42.648;23.292;2023-04-26T08:04:12;92978.16;;;9.18;51.97
30935;BME280;51033;42.648;23.292;2023-04-26T08:06:38;92959.06;;;9.24;52.61
30935;BME280;51033;42.648;23.292;2023-04-26T08:09:03;92940.88;;;8.93;52.32
30935;BME280;51033;42.648;23.292;2023-04-26T08:11:29;92976.72;;;9.20;52.95
30935;BME280;51033;42.648;23.292;2023-04-26T08:13:55;92979.84;;;9.22;53.12
30935;BME280;51033;42.648;23.292;2023-04-26T08:16:20;92982.53;;;9.34;52.34
30935;BME280;51033;42.648;23.292;2023-04-26T08:18:47;92978.09;;;9.26;52.54
30935;BME280;51033;42.648;23.292;2023-04-26T08:21:12;92976.47;;;9.34;52.05
30935;BME280;51033;42.648;23.292;2023-04-26T08:23:38;92990.19;;;9.36;52.53
30935;BME280;51033;42.648;23.292;2023-04-26T08:26:04;92971.56;;;9.24;51.87
30935;BME280;51033;42.648;23.292;2023-04-26T08:28:30;92973.25;;;9.28;52.22
30935;BME280;51033;42.648;23.292;2023-04-26T08:30:55;92977.22;;;9.34;51.52
30935;BME280;51033;42.648;23.292;2023-04-26T08:33:21;92971.69;;;9.27;50.82
30935;BME280;51033;42.648;23.292;2023-04-26T08:35:47;92951.22;;;9.07;51.07
30935;BME280;51033;42.648;23.292;2023-04-26T08:38:12;92937.91;;;9.16;51.42
30935;BME280;51033;42.648;23.292;2023-04-26T08:40:38;92991.47;;;9.51;52.12
30935;BME280;51033;42.648;23.292;2023-04-26T08:43:07;92971.28;;;9.37;50.47
30935;BME280;51033;42.648;23.292;2023-04-26T08:45:34;92984.09;;;9.56;50.59
30935;BME280;51033;42.648;23.292;2023-04-26T08:48:04;92957.56;;;9.35;50.93
30935;BME280;51033;42.648;23.292;2023-04-26T08:50:33;92968.16;;;9.56;50.30
30935;BME280;51033;42.648;23.292;2023-04-26T08:52:58;92993.78;;;9.73;50.34
30935;BME280;51033;42.648;23.292;2023-04-26T08:55:24;92979.78;;;9.64;50.18
30935;BME280;51033;42.648;23.292;2023-04-26T08:57:51;92967.84;;;9.58;50.98
30935;BME280;51033;42.648;23.292;2023-04-26T09:00:17;92996.22;;;9.78;50.76
30935;BME280;51033;42.648;23.292;2023-04-26T09:02:48;92993.91;;;9.76;51.28
30935;BME280;51033;42.648;23.292;2023-04-26T09:05:15;92982.78;;;9.95;52.07
30935;BME280;51033;42.648;23.292;2023-04-26T09:07:43;92983.44;;;10.04;50.33
30935;BME280;51033;42.648;23.292;2023-04-26T09:10:10;92987.88;;;10.12;50.26
30935;BME280;51033;42.648;23.292;2023-04-26T09:12:36;92981.94;;;10.27;49.71
30935;BME280;51033;42.648;23.292;2023-04-26T09:15:05;92992.56;;;10.27;49.07
30935;BME280;51033;42.648;23.292;2023-04-26T09:17:38;92996.22;;;10.23;50.22
30935;BME280;51033;42.648;23.292;2023-04-26T09:22:43;92986.06;;;10.37;49.46
30935;BME280;51033;42.648;23.292;2023-04-26T09:25:10;92991.88;;;10.51;49.04
30935;BME280;51033;42.648;23.292;2023-04-26T09:27:39;92981.13;;;10.60;49.45
30935;BME280;51033;42.648;23.292;2023-04-26T09:38:12;92983.84;;;10.88;47.51
30935;BME280;51033;42.648;23.292;2023-04-26T09:40:45;92998.91;;;10.96;48.29
30935;BME280;51033;42.648;23.292;2023-04-26T09:43:13;92980.00;;;10.85;46.85
30935;BME280;51033;42.648;23.292;2023-04-26T09:45:44;92982.84;;;10.92;46.46
30935;BME280;51033;42.648;23.292;2023-04-26T09:48:28;92987.84;;;10.94;47.05
30935;BME280;51033;42.648;23.292;2023-04-26T09:51:09;92984.16;;;11.10;47.00
30935;BME280;51033;42.648;23.292;2023-04-26T09:53:40;92983.91;;;11.15;48.20
30935;BME280;51033;42.648;23.292;2023-04-26T09:56:11;92972.34;;;11.36;47.21
30935;BME280;51033;42.648;23.292;2023-04-26T09:58:57;92989.88;;;11.37;47.08
30935;BME280;51033;42.648;23.292;2023-04-26T10:01:24;92977.66;;;11.36;46.11
30935;BME280;51033;42.648;23.292;2023-04-26T10:03:51;92976.00;;;11.43;45.93
30935;BME280;51033;42.648;23.292;2023-04-26T10:06:16;92988.84;;;11.53;45.77
30935;BME280;51033;42.648;23.292;2023-04-26T10:08:43;92960.13;;;11.35;45.99
30935;BME280;51033;42.648;23.292;2023-04-26T10:11:09;92980.28;;;11.60;45.69
30935;BME280;51033;42.648;23.292;2023-04-26T10:13:41;92968.44;;;11.57;46.54
30935;BME280;51033;42.648;23.292;2023-04-26T10:16:08;92957.97;;;11.25;44.78
30935;BME280;51033;42.648;23.292;2023-04-26T10:18:35;92977.66;;;11.36;45.83
30935;BME280;51033;42.648;23.292;2023-04-26T10:21:07;92975.41;;;11.62;44.79
30935;BME280;51033;42.648;23.292;2023-04-26T10:23:35;92978.22;;;11.69;45.72
30935;BME280;51033;42.648;23.292;2023-04-26T10:26:01;92965.81;;;11.73;44.14
30935;BME280;51033;42.648;23.292;2023-04-26T10:31:13;92963.81;;;11.70;44.68
30935;BME280;51033;42.648;23.292;2023-04-26T10:33:38;92964.13;;;11.69;43.63
30935;BME280;51033;42.648;23.292;2023-04-26T10:38:33;92971.81;;;11.70;43.86
30935;BME280;51033;42.648;23.292;2023-04-26T10:41:32;92973.81;;;11.73;42.92
30935;BME280;51033;42.648;23.292;2023-04-26T10:44:00;92962.69;;;11.71;42.64
30935;BME280;51033;42.648;23.292;2023-04-26T10:46:49;92977.28;;;11.62;42.14
30935;BME280;51033;42.648;23.292;2023-04-26T10:49:17;92977.19;;;11.46;42.99
30935;BME280;51033;42.648;23.292;2023-04-26T10:52:12;92970.78;;;11.35;42.44
30935;BME280;51033;42.648;23.292;2023-04-26T10:54:57;92970.44;;;11.48;43.03
30935;BME280;51033;42.648;23.292;2023-04-26T10:57:46;92960.69;;;11.52;42.62
30935;BME280;51033;42.648;23.292;2023-04-26T11:02:57;92955.50;;;11.32;42.54
30935;BME280;51033;42.648;23.292;2023-04-26T11:05:53;92965.31;;;11.55;41.87
30935;BME280;51033;42.648;23.292;2023-04-26T11:08:19;92968.03;;;11.71;40.74
30935;BME280;51033;42.648;23.292;2023-04-26T11:10:56;92971.81;;;11.70;41.74
30935;BME280;51033;42.648;23.292;2023-04-26T11:13:22;92971.31;;;11.52;40.37
30935;BME280;51033;42.648;23.292;2023-04-26T11:15:58;92952.69;;;11.40;41.06
30935;BME280;51033;42.648;23.292;2023-04-26T11:18:24;92950.88;;;11.56;41.54
30935;BME280;51033;42.648;23.292;2023-04-26T11:20:49;92960.53;;;11.61;42.19
30935;BME280;51033;42.648;23.292;2023-04-26T11:23:17;92962.25;;;11.69;41.75
30935;BME280;51033;42.648;23.292;2023-04-26T11:25:43;92982.53;;;11.74;40.63
30935;BME280;51033;42.648;23.292;2023-04-26T11:28:09;92935.88;;;11.64;41.36
30935;BME280;51033;42.648;23.292;2023-04-26T11:30:34;92956.25;;;11.72;41.27
30935;BME280;51033;42.648;23.292;2023-04-26T11:33:01;92948.88;;;11.81;41.39
30935;BME280;51033;42.648;23.292;2023-04-26T11:35:37;92958.44;;;11.82;40.76
30935;BME280;51033;42.648;23.292;2023-04-26T11:38:03;92948.66;;;11.86;40.67
30935;BME280;51033;42.648;23.292;2023-04-26T11:40:33;92972.72;;;11.90;40.34
30935;BME280;51033;42.648;23.292;2023-04-26T11:43:03;92970.72;;;11.59;40.64
30935;BME280;51033;42.648;23.292;2023-04-26T11:45:31;92974.53;;;11.58;41.27
30935;BME280;51033;42.648;23.292;2023-04-26T11:47:57;92959.00;;;11.48;40.84
30935;BME280;51033;42.648;23.292;2023-04-26T11:50:24;92973.41;;;11.47;41.58
30935;BME280;51033;42.648;23.292;2023-04-26T11:52:53;92957.69;;;11.54;42.30
30935;BME280;51033;42.648;23.292;2023-04-26T11:55:22;92965.38;;;11.71;40.86
30935;BME280;51033;42.648;23.292;2023-04-26T11:57:49;92942.16;;;11.44;41.13
30935;BME280;51033;42.648;23.292;2023-04-26T12:00:16;92965.75;;;11.45;41.97
30935;BME280;51033;42.648;23.292;2023-04-26T12:05:24;92962.06;;;11.62;41.32
30935;BME280;51033;42.648;23.292;2023-04-26T12:07:54;92968.03;;;11.71;41.32
30935;BME280;51033;42.648;23.292;2023-04-26T12:10:33;92959.72;;;11.73;42.13
30935;BME280;51033;42.648;23.292;2023-04-26T12:12:59;92942.84;;;11.69;41.39
30935;BME280;51033;42.648;23.292;2023-04-26T12:15:28;92956.50;;;11.67;40.71
30935;BME280;51033;42.648;23.292;2023-04-26T12:17:59;92958.56;;;11.58;41.19
30935;BME280;51033;42.648;23.292;2023-04-26T12:20:28;92960.56;;;11.49;41.18
30935;BME280;51033;42.648;23.292;2023-04-26T12:25:36;92960.88;;;11.47;40.50
30935;BME280;51033;42.648;23.292;2023-04-26T12:28:03;92952.75;;;11.68;40.61
30935;BME280;51033;42.648;23.292;2023-04-26T12:30:30;92944.38;;;11.70;40.47
30935;BME280;51033;42.648;23.292;2023-04-26T12:32:56;92939.84;;;11.70;39.92
30935;BME280;51033;42.648;23.292;2023-04-26T12:35:23;92951.56;;;11.81;40.84
30935;BME280;51033;42.648;23.292;2023-04-26T12:37:49;92947.28;;;11.92;40.52
30935;BME280;51033;42.648;23.292;2023-04-26T12:40:17;92950.53;;;11.86;41.51
30935;BME280;51033;42.648;23.292;2023-04-26T12:42:45;92948.66;;;11.86;40.84
30935;BME280;51033;42.648;23.292;2023-04-26T12:45:11;92943.97;;;11.83;41.07
30935;BME280;51033;42.648;23.292;2023-04-26T12:47:36;92932.47;;;11.79;40.44
30935;BME280;51033;42.648;23.292;2023-04-26T12:50:02;92954.78;;;11.75;40.67
30935;BME280;51033;42.648;23.292;2023-04-26T12:52:29;92948.06;;;11.65;41.89
30935;BME280;51033;42.648;23.292;2023-04-26T12:54:55;92947.28;;;11.65;41.09
30935;BME280;51033;42.648;23.292;2023-04-26T12:57:20;92954.78;;;11.47;41.43
30935;BME280;51033;42.648;23.292;2023-04-26T12:59:46;92953.78;;;11.51;41.83
30935;BME280;51033;42.648;23.292;2023-04-26T13:02:12;92942.41;;;11.39;41.72
30935;BME280;51033;42.648;23.292;2023-04-26T13:04:37;92946.41;;;11.33;41.90
30935;BME280;51033;42.648;23.292;2023-04-26T13:07:03;92964.25;;;11.32;41.85
30935;BME280;51033;42.648;23.292;2023-04-26T13:09:28;92966.22;;;11.07;42.44
30935;BME280;51033;42.648;23.292;2023-04-26T13:11:54;92948.97;;;10.77;42.12
30935;BME280;51033;42.648;23.292;2023-04-26T13:14:19;92953.84;;;10.75;42.22
30935;BME280;51033;42.648;23.292;2023-04-26T13:16:47;92953.84;;;10.75;43.30